Anza Borrego Desert Research Center, California Weather observations

Data are for 10 minute period ending at time listed.
 Day   Time   Solar   Ave.   Ave.  Ave.  Vector  Max.   Baro.   Total    
  of    of     Rad.   Air    Rel.  Wind   Wind   Wind  Press.  Precip.   
Year   Day            Temp.  Hum.  Speed  Dir.   Gust                    
2014   (PST)  Kw/m2    F      %     mph   deg.    mph    mb.     in.     
-------------------------------------------------------------------------
 293    1:30   0.00   72.5    36    2.4   282     4.7   501.8    0.00 
 293    1:40   0.00   71.4    36    2.0   303     4.2   501.8    0.00 
 293    1:50   0.00   71.8    36    1.8   250     3.6   501.8    0.00 
 293    2:00   0.00   72.9    35    0.9   290     2.6   501.8    0.00 
 293    2:10   0.00   72.1    36    1.4   292     2.7   501.8    0.00 
 293    2:20   0.00   72.6    39    2.0   275     3.9   501.8    0.00 
 293    2:30   0.00   71.3    38    3.7   243     5.4   501.8    0.00 
 293    2:40   0.00   70.4    39    3.0   220     4.8   501.8    0.00 
 293    2:50   0.00   70.4    38    3.6   222     5.4   501.8    0.00 
 293    3:00   0.00   73.1    39    2.3   214     6.1   501.8    0.00 
 293    3:10   0.00   75.0    36    5.9   203     8.7   501.8    0.00 
 293    3:20   0.00   72.4    36    3.2   232     5.1   501.8    0.00 
 293    3:30   0.00   69.8    38    2.2   248     4.0   501.8    0.00 
 293    3:40   0.00   70.6    37    1.4   219     2.6   501.8    0.00 
 293    3:50   0.00   69.3    40    1.9     0     4.0   501.8    0.00 
 293    4:00   0.00   69.6    43    1.6   335     2.5   501.8    0.00 
 293    4:10   0.00   69.3    42    2.6   255     5.6   501.8    0.00 
 293    4:20   0.00   68.6    42    5.2   259     6.4   501.8    0.00 
 293    4:30   0.00   68.5    40    3.7   255     5.1   501.8    0.00 
 293    4:40   0.00   68.6    40    2.1   160     3.8   501.8    0.00 
 293    4:50   0.00   68.9    40    3.6   198     5.0   501.8    0.00 
 293    5:00   0.00   71.4    38    2.6   190     4.3   501.8    0.00 
 293    5:10   0.00   71.9    38    2.6   178     5.0   501.8    0.00 
 293    5:20   0.00   69.5    39    3.5   238     4.4   501.8    0.00 
 293    5:30   0.00   69.1    39    4.0   248     5.0   501.8    0.00 
 293    5:40   0.00   69.1    39    3.9   241     6.3   501.8    0.00 
 293    5:50   0.00   68.0    40    2.9   275     4.3   501.8    0.00 
 293    6:00   0.00   69.6    38    0.8   296     3.7   501.8    0.00 
 293    6:10   0.01   70.4    38    1.8   293     4.9   501.8    0.00 
 293    6:20   0.03   70.5    39    3.0   298     4.2   501.8    0.00 
 293    6:30   0.05   72.8    37    1.3   330     3.1   501.8    0.00 
 293    6:40   0.08   73.6    36    0.7   203     1.7   501.8    0.00 
 293    6:50   0.10   75.1    34    1.9   238     3.1   501.8    0.00 
 293    7:00   0.14   77.8    32    1.3   224     2.0   501.8    0.00 
 293    7:10   0.17   81.1    30    0.9   180     2.3   501.8    0.00 
 293    7:20   0.20   83.9    28    0.4   174     1.5   501.8    0.00 
 293    7:30   0.23   85.0    28    0.8   195     1.8   501.8    0.00 
 293    7:40   0.26   85.6    27    0.8   168     1.8   501.8    0.00 
 293    7:50   0.30   85.6    27    1.3   150     2.9   501.9    0.00 
 293    8:00   0.33   87.6    25    0.6   147     2.2   502.0    0.00 
 293    8:10   0.36   86.5    26    2.1    85     3.9   502.0    0.00 
 293    8:20   0.39   84.1    29    2.7    78     5.2   502.0    0.00 
 293    8:30   0.42   82.9    31    3.4    77     5.5   502.0    0.00 
 293    8:40   0.45   82.8    30    5.2   116     7.9   502.0    0.00 
 293    8:50   0.48   83.1    28    5.9   136     8.1   502.0    0.00 
 293    9:00   0.51   83.4    27    5.2   118     9.1   502.0    0.00 
 293    9:10   0.53   83.5    27    5.6   125     8.7   502.0    0.00 
 293    9:20   0.55   83.8    27    5.8   109     8.5   502.0    0.00 
 293    9:30   0.58   83.8    27    6.8   112    10.5   502.0    0.00 
 293    9:40   0.59   84.5    27    5.7   104     8.7   502.0    0.00 
 293    9:50   0.62   84.7    26    5.4   124     9.0   502.1    0.00 
 293   10:00   0.63   85.2    26    5.5   117     9.0   502.1    0.00 
 293   10:10   0.65   85.8    26    5.0   103     8.2   502.1    0.00 
 293   10:20   0.67   85.6    28    5.5   111     9.9   502.1    0.00 
 293   10:30   0.68   85.9    30    4.6   115     8.6   502.1    0.00 
 293   10:40   0.68   86.3    33    6.3   114    11.0   502.1    0.00 
 293   10:50   0.69   85.7    35    6.8   118    10.5   502.1    0.00 
 293   11:00   0.70   85.8    36    7.0   100    11.5   502.1    0.00 
 293   11:10   0.71   86.2    35    6.6   111    10.8   502.1    0.00 
 293   11:20   0.71   86.5    34    4.8   114    10.5   502.1    0.00 
 293   11:30   0.71   86.9    34    6.8   136    11.2   502.1    0.00 
 293   11:40   0.71   86.8    35    7.1   107    11.5   502.1    0.00 
 293   11:50   0.71   87.1    35    5.4    92     9.0   502.1    0.00 
 293   12:00   0.71   87.0    35    5.2   110     9.9   502.1    0.00 
 293   12:10   0.70   87.8    33    5.7   113    12.6   502.1    0.00 
 293   12:20   0.69   87.6    33    5.7   109     9.3   502.1    0.00 
 293   12:30   0.68   87.7    32    5.4    91    11.2   502.1    0.00 
 293   12:40   0.65   88.1    31    5.2    96     9.0   502.2    0.00 
 293   12:50   0.66   88.5    31    3.7   128     7.1   502.3    0.00 
 293   13:00   0.65   89.1    30    5.2   139     9.2   502.3    0.00 
 293   13:10   0.63   89.0    29    4.1   146     9.1   502.3    0.00 
 293   13:20   0.61   89.0    30    4.0   161     7.2   502.3    0.00 
 293   13:30   0.59   89.8    29    3.9   113     7.8   502.3    0.00 
 293   13:40   0.57   90.4    29    4.4   138     7.7   502.3    0.00 
 293   13:50   0.55   90.3    28    4.1   110     7.8   502.3    0.00 
 293   14:00   0.53   91.9    27    3.0   146     7.6   502.3    0.00 
 293   14:10   0.50   90.6    28    6.4    97    11.0   502.3    0.00 
 293   14:20   0.48   89.9    28    6.3    84    11.7   502.3    0.00 
 293   14:30   0.45   90.6    28    3.9    77     7.7   502.3    0.00 
 293   14:40   0.42   91.0    27    4.7   126     9.4   502.3    0.00 
 293   14:50   0.40   90.9    27    2.7   110     7.7   502.3    0.00 
 293   15:00   0.36   91.3    27    5.5   133     9.5   502.3    0.00 
 293   15:10   0.33   91.2    27    3.5   112     9.3   502.3    0.00 
 293   15:20   0.30   91.1    27    5.2   122     9.8   502.3    0.00 
 293   15:30   0.27   90.9    27    4.3   147     9.1   502.3    0.00 
 293   15:40   0.24   91.8    26    3.5   124     6.9   502.3    0.00 
 293   15:50   0.20   90.6    27    4.7   107     8.8   502.3    0.00 
 293   16:00   0.17   90.4    28    5.1   104     9.3   502.2    0.00 
 293   16:10   0.14   89.9    28    4.9    91     7.4   502.1    0.00 
 293   16:20   0.08   89.3    28    3.3    90     7.2   502.1    0.00 
 293   16:30   0.03   88.1    29    4.5    86     7.4   502.1    0.00 
 293   16:40   0.01   87.4    30    3.7    70     5.7   502.1    0.00 
 293   16:50   0.01   86.9    30    3.7    78     6.2   502.1    0.00 
 293   17:00   0.01   86.5    31    2.6    79     4.5   502.0    0.00 
 293   17:10   0.00   86.1    31    3.1    90     4.7   502.0    0.00 
 293   17:20   0.00   85.6    32    1.8    97     3.7   502.0    0.00 
 293   17:30   0.00   84.1    32    2.1   231     5.7   502.0    0.00 
 293   17:40   0.00   83.0    33    5.1   229     7.9   502.0    0.00 
 293   17:50   0.00   84.6    31    4.2   226     7.3   502.0    0.00 
 293   18:00   0.00   82.9    32    3.2   241     4.2   502.0    0.00 
 293   18:10   0.00   81.4    33    2.5   277     4.3   502.0    0.00 
 293   18:20   0.00   82.5    32    2.0   271     3.5   502.0    0.00 
 293   18:30   0.00   83.0    30    3.8   304     6.9   502.0    0.00 
 293   18:40   0.00   83.2    30    4.1   278     6.6   502.0    0.00 
 293   18:50   0.00   81.7    31    2.8   252     4.5   502.0    0.00 
 293   19:00   0.00   80.5    31    3.1   241     5.5   502.0    0.00 
 293   19:10   0.00   78.7    31    3.8   231     5.3   502.0    0.00 
 293   19:20   0.00   77.5    32    4.6   225     6.2   501.9    0.00 
 293   19:30   0.00   77.3    32    4.7   233     5.8   501.9    0.00 
 293   19:40   0.00   79.1    30    4.0   241     5.1   501.9    0.00 
 293   19:50   0.00   79.0    30    2.8   173     4.8   501.9    0.00 
 293   20:00   0.00   78.3    35    3.2   126     4.7   501.8    0.00 
 293   20:10   0.00   78.6    35    2.8   138     3.9   501.8    0.00 
 293   20:20   0.00   77.9    34    4.1   246     6.5   501.8    0.00 
 293   20:30   0.00   76.9    35    4.3   210     5.4   501.8    0.00 
 293   20:40   0.00   76.6    36    5.8   194     7.5   501.8    0.00 
 293   20:50   0.00   75.9    37    5.6   211     6.6   501.8    0.00 
 293   21:00   0.00   77.0    36    5.3   205     6.8   501.8    0.00 
 293   21:10   0.00   77.1    36    5.0   214     6.4   501.8    0.00 
 293   21:20   0.00   75.4    33    5.2   227     6.4   501.8    0.00 
 293   21:30   0.00   74.2    34    5.0   221     6.1   501.8    0.00 
 293   21:40   0.00   74.0    34    5.0   225     6.0   501.8    0.00 
 293   21:50   0.00   74.4    34    4.4   270     6.1   501.8    0.00 
 293   22:00   0.00   74.2    36    2.2   288     3.9   501.8    0.00 
 293   22:10   0.00   74.2    37    2.9   319     3.8   501.8    0.00 
 293   22:20   0.00   74.1    40    3.2   339     3.8   501.8    0.00 
 293   22:30   0.00   73.1    41    1.2   327     2.9   501.8    0.00 
 293   22:40   0.00   73.0    42    2.4   337     3.1   501.8    0.00 
 293   22:50   0.00   72.4    44    2.3   266     3.4   501.8    0.00 
 293   23:00   0.00   71.7    44    2.1   248     3.4   501.8    0.00 
 293   23:10   0.00   70.4    43    2.4   209     3.7   501.8    0.00 
 293   23:20   0.00   70.0    42    2.7   220     3.3   501.8    0.00 
 293   23:30   0.00   70.5    42    2.9   231     3.7   501.8    0.00 
 293   23:40   0.00   69.8    41    1.7   214     3.1   501.8    0.00 
 293   23:50   0.00   70.4    39    2.0   260     3.9   501.8    0.00 
 294    0:00   0.00   70.2    40    3.4   260     5.1   501.8    0.00 
 294    0:10   0.00   70.4    38    2.6   267     4.6   501.8    0.00 
 294    0:20   0.00   70.4    38    3.4   238     4.6   501.8    0.00 
 294    0:30   0.00   69.7    37    2.8   248     4.0   501.8    0.00 
 294    0:40   0.00   71.5    34    2.0   308     3.5   501.8    0.00 
 294    0:50   0.00   71.7    40    1.3   280     3.3   501.8    0.00 
 294    1:00   0.00   71.1    42    1.0   255     4.2   501.8    0.00 
 294    1:10   0.00   68.7    43    3.1   243     4.0   501.8    0.00 
 294    1:20   0.00   67.7    42    3.2   234     4.5   501.8    0.00 

Return to Anza Borrego Desert Research Center graphs page.


Western Regional Climate Center,wrcc@dri.edu